Home > Products > Valid Products > TAF

000
FTUS43 KGRR 300000 AAA
TAFGRR
TAF AMD
KGRR 300057Z 3001/3024 26006KT P6SM BKN150 BKN250
     FM300200 VRB03KT P6SM BKN050
     FM301500 32009KT P6SM SCT040=



000
FTUS43 KGRR 292300
TAFBTL
TAF
KBTL 292339Z 3000/3024 29011KT P6SM SCT050
     FM300200 VRB03KT P6SM BKN050
     FM301500 31009KT P6SM SCT040=



000
FTUS43 KGRR 292300
TAFJXN
TAF
KJXN 292339Z 3000/3024 24005KT P6SM SCT050 SCT080
     FM300300 VRB03KT P6SM BKN050
     FM301500 32009KT P6SM SCT040=



000
FTUS43 KGRR 292300
TAFMKG
TAF
KMKG 292339Z 3000/3024 22006KT P6SM FEW035
     FM300300 VRB03KT P6SM BKN050
     FM301500 32009KT P6SM SCT040=



000
FTUS43 KGRR 292300
TAFAZO
TAF
KAZO 292339Z 3000/3024 31010KT P6SM SCT050
     FM300200 VRB03KT P6SM BKN050
     FM301500 31009KT P6SM SCT040=



000
FTUS43 KGRR 292300
TAFLAN
TAF
KLAN 292339Z 3000/3024 00000KT P6SM SCT050 OVC080
     FM301500 30009KT P6SM SCT040=



000
FTUS43 KGRR 292300
TAFGRR
TAF
KGRR 292339Z 3000/3024 30012KT P6SM FEW250
     FM300200 VRB03KT P6SM BKN050
     FM301500 32009KT P6SM SCT040=



000
FTUS43 KGRR 291900 AAA
TAFJXN
TAF AMD
KJXN 291959Z 2920/3018 28010KT P6SM VCTS BKN035CB
     FM300100 VRB03KT P6SM BKN050
     FM301500 26009KT P6SM BKN040=



000
FTUS43 KGRR 291900 AAA
TAFLAN
TAF AMD
KLAN 291958Z 2920/3018 28010KT P6SM VCTS BKN035CB
     FM300000 VRB03KT P6SM BKN050
     FM301500 26009KT P6SM BKN040=



000
FTUS43 KGRR 291700
TAFAZO
TAF
KAZO 291740Z 2918/3018 28010KT P6SM BKN035
     FM300200 VRB03KT P6SM BKN050
     FM301500 26009KT P6SM BKN040=



000
FTUS43 KGRR 291700
TAFGRR
TAF
KGRR 291740Z 2918/3018 28010KT P6SM BKN035
     FM300200 VRB03KT P6SM BKN050
     FM301500 26009KT P6SM BKN040=



000
FTUS43 KGRR 291700
TAFJXN
TAF
KJXN 291740Z 2918/3018 28010KT P6SM VCSH BKN035
     FM300200 VRB03KT P6SM BKN050
     FM301500 26009KT P6SM BKN040=



000
FTUS43 KGRR 291700
TAFLAN
TAF
KLAN 291740Z 2918/3018 28010KT P6SM VCSH BKN035
     FM300200 VRB03KT P6SM BKN050
     FM301500 26009KT P6SM BKN040=



000
FTUS43 KGRR 291700
TAFMKG
TAF
KMKG 291740Z 2918/3018 28010KT P6SM BKN035
     FM300200 VRB03KT P6SM BKN050
     FM301500 26009KT P6SM BKN040=



000
FTUS43 KGRR 291700
TAFBTL
TAF
KBTL 291740Z 2918/3018 28010KT P6SM VCSH BKN040
     FM300200 VRB03KT P6SM BKN050
     FM301500 26009KT P6SM BKN040=



000
FTUS43 KGRR 291100 RRA
TAFJXN
TAF
KJXN 291141Z 2912/3012 25007KT P6SM BKN050
     FM291700 28010KT P6SM VCSH BKN035
     FM300200 VRB03KT P6SM BKN050=



000
FTUS43 KGRR 291100 RRA
TAFMKG
TAF
KMKG 291141Z 2912/3012 25007KT P6SM BKN050
     FM291700 28010KT P6SM BKN035
     FM300200 VRB03KT P6SM BKN050=



000
FTUS43 KGRR 291100 RRA
TAFBTL
TAF
KBTL 291141Z 2912/3012 24007KT P6SM BKN050
     FM291700 28010KT P6SM VCSH BKN035
     FM300200 VRB03KT P6SM BKN050=



000
FTUS43 KGRR 291100 RRA
TAFLAN
TAF
KLAN 291141Z 2912/3012 25007KT P6SM BKN050
     FM291700 28010KT P6SM VCSH BKN035
     FM300200 VRB03KT P6SM BKN050=



000
FTUS43 KGRR 291100 RRA
TAFAZO
TAF
KAZO 291141Z 2912/3012 24007KT P6SM BKN050
     FM291700 28010KT P6SM VCSH BKN035
     FM300200 VRB03KT P6SM BKN050=



000
FTUS43 KGRR 291100 RRA
TAFGRR
TAF
KGRR 291141Z 2912/3012 25007KT P6SM BKN050
     FM291700 28010KT P6SM VCSH BKN035
     FM300200 VRB03KT P6SM BKN050=



000
FTUS43 KGRR 290500
TAFGRR
TAF
KGRR 290540Z 2906/3006 30005KT P6SM SKC
     FM291000 32003KT P6SM BKN050
     FM291500 27010KT P6SM VCSH BKN025
     FM300100 25006KT P6SM SCT050=



000
FTUS43 KGRR 290500
TAFJXN
TAF
KJXN 290540Z 2906/3006 00000KT P6SM SKC
     FM291200 32003KT P6SM BKN050
     FM291500 27010KT P6SM VCTS BKN035CB
     FM300200 25006KT P6SM SCT050=



000
FTUS43 KGRR 290500
TAFBTL
TAF
KBTL 290540Z 2906/3006 30005KT P6SM SKC
     FM291200 32003KT P6SM BKN050
     FM291500 27010KT P6SM VCTS BKN035CB
     FM300200 25006KT P6SM SCT050=



000
FTUS43 KGRR 290500
TAFMKG
TAF
KMKG 290540Z 2906/3006 30003KT P6SM SKC
     FM290900 00000KT P6SM BKN070
     FM291500 28010KT P6SM VCSH BKN035
     FM292100 25006KT P6SM SCT050=



000
FTUS43 KGRR 290500
TAFAZO
TAF
KAZO 290540Z 2906/3006 32005KT P6SM SKC
     FM291200 32003KT P6SM BKN050
     FM291500 27010KT P6SM VCTS BKN035CB
     FM300200 25006KT P6SM SCT050=



000
FTUS43 KGRR 290500
TAFLAN
TAF
KLAN 290540Z 2906/3006 00000KT P6SM SKC
     FM291200 32003KT P6SM BKN050
     FM291500 27010KT P6SM VCTS BKN035CB
     FM300200 25006KT P6SM SCT050=



000
FTUS43 KGRR 282300
TAFLAN
TAF
KLAN 282326Z 2900/2924 01011KT P6SM BKN045 BKN060
     FM290300 34006KT P6SM SKC
     FM291000 32003KT P6SM BKN050
     FM291500 27010KT P6SM VCSH BKN035=



000
FTUS43 KGRR 282300
TAFAZO
TAF
KAZO 282326Z 2900/2924 31010KT P6SM SKC
     FM290300 34006KT P6SM SKC
     FM291000 32003KT P6SM BKN050
     FM291500 27010KT P6SM VCSH BKN025=



000
FTUS43 KGRR 282300
TAFBTL
TAF
KBTL 282326Z 2900/2924 31010KT P6SM FEW040 BKN060
     FM290300 34006KT P6SM SKC
     FM291000 32003KT P6SM BKN050
     FM291500 27010KT P6SM VCSH BKN025=



000
FTUS43 KGRR 282300
TAFGRR
TAF
KGRR 282326Z 2900/2924 33009KT P6SM SCT045
     FM290300 34006KT P6SM SKC
     FM290800 32003KT P6SM BKN050
     FM291500 27010KT P6SM VCSH BKN025=



000
FTUS43 KGRR 282300
TAFMKG
TAF
KMKG 282326Z 2900/2924 29009KT P6SM SCT040
     FM290300 34006KT P6SM SKC
     FM290600 32003KT P6SM BKN050
     FM291400 29010KT P6SM VCSH BKN035=



000
FTUS43 KGRR 282300
TAFJXN
TAF
KJXN 282326Z 2900/2924 35006KT P6SM BKN070
     FM290300 34006KT P6SM SKC
     FM291000 32003KT P6SM BKN050
     FM291500 27010KT P6SM VCSH BKN025=



000
FTUS43 KGRR 281700
TAFGRR
TAF
KGRR 281740Z 2818/2918 35012G20KT P6SM BKN035
     FM290100 30006KT P6SM BKN050
     FM291400 27009KT P6SM VCSH BKN025=



000
FTUS43 KGRR 281700
TAFAZO
TAF
KAZO 281740Z 2818/2918 33012G20KT P6SM BKN035
     FM290100 30006KT P6SM BKN050
     FM291400 27009KT P6SM VCSH BKN025=



000
FTUS43 KGRR 281700
TAFMKG
TAF
KMKG 281740Z 2818/2918 31012G21KT P6SM BKN035
     FM290100 33006KT P6SM BKN050
     FM291400 27009KT P6SM VCSH BKN025=



000
FTUS43 KGRR 281700
TAFJXN
TAF
KJXN 281740Z 2818/2918 33012G20KT P6SM BKN035
     FM290100 30006KT P6SM BKN050
     FM291400 27009KT P6SM VCSH BKN025=



000
FTUS43 KGRR 281700
TAFBTL
TAF
KBTL 281740Z 2818/2918 33012G20KT P6SM BKN035
     FM290100 30006KT P6SM BKN050
     FM291400 27009KT P6SM VCSH BKN025=



000
FTUS43 KGRR 281700
TAFLAN
TAF
KLAN 281740Z 2818/2918 35012G20KT P6SM BKN035
     FM290100 30006KT P6SM BKN050
     FM291400 27009KT P6SM VCSH BKN025=



000
FTUS43 KGRR 281500 AAB
TAFJXN
TAF AMD
KJXN 281500Z 2815/2912 34011KT P6SM OVC020
     FM281700 33012G20KT P6SM BKN035
     FM290100 30006KT P6SM BKN050=



000
FTUS43 KGRR 281500 AAA
TAFMKG
TAF AMD
KMKG 281500Z 2815/2912 34010KT P6SM OVC015
     FM281700 35012G21KT P6SM BKN035
     FM290100 33006KT P6SM BKN050=



000
FTUS43 KGRR 281400 AAB
TAFBTL
TAF AMD
KBTL 281459Z 2815/2912 34011KT P6SM OVC015
     FM281700 33012G20KT P6SM BKN035
     FM290100 30006KT P6SM BKN050=



000
FTUS43 KGRR 281400 AAB
TAFLAN
TAF AMD
KLAN 281459Z 2815/2912 35011KT P6SM OVC020
     FM281700 35012G20KT P6SM BKN035
     FM290100 30006KT P6SM BKN050=



000
FTUS43 KGRR 281400 AAA
TAFGRR
TAF AMD
KGRR 281458Z 2815/2912 34011KT P6SM OVC020
     FM281700 35012G20KT P6SM BKN035
     FM290100 30006KT P6SM BKN050=



000
FTUS43 KGRR 281400 AAB
TAFAZO
TAF AMD
KAZO 281458Z 2815/2912 34011KT P6SM OVC015
     FM281700 33012G20KT P6SM BKN035
     FM290100 30006KT P6SM BKN050=



000
FTUS43 KGRR 281300 AAA
TAFJXN
TAF AMD
KJXN 281337Z 2814/2912 34011KT P6SM BKN015
     FM281530 33012G20KT P6SM BKN035
     FM290100 30006KT P6SM BKN050=



000
FTUS43 KGRR 281300 AAA
TAFBTL
TAF AMD
KBTL 281336Z 2814/2912 34011KT P6SM OVC013
     FM281500 33012G20KT P6SM BKN035
     FM290100 30006KT P6SM BKN050=



000
FTUS43 KGRR 281300 AAA
TAFAZO
TAF AMD
KAZO 281336Z 2814/2912 34011KT P6SM OVC013
     FM281500 33012G20KT P6SM BKN035
     FM290100 30006KT P6SM BKN050=



000
FTUS43 KGRR 281300 AAA
TAFLAN
TAF AMD
KLAN 281336Z 2814/2912 35011KT P6SM OVC013
     FM281500 35012G20KT P6SM BKN035
     FM290100 30006KT P6SM BKN050=



000
FTUS43 KGRR 281100
TAFJXN
TAF
KJXN 281140Z 2812/2912 34011KT P6SM BKN025
     FM281530 33012G20KT P6SM BKN035
     FM290100 30006KT P6SM BKN050=



000
FTUS43 KGRR 281100
TAFAZO
TAF
KAZO 281140Z 2812/2912 34011KT P6SM SCT020
      TEMPO 2812/2813 BKN015
     FM281500 33012G20KT P6SM BKN035
     FM290100 30006KT P6SM BKN050=



000
FTUS43 KGRR 281100
TAFGRR
TAF
KGRR 281140Z 2812/2912 35011KT P6SM SCT025
     FM281500 35012G20KT P6SM BKN035
     FM290100 30006KT P6SM BKN050=



000
FTUS43 KGRR 281100
TAFLAN
TAF
KLAN 281140Z 2812/2912 35011KT P6SM SCT025
      TEMPO 2813/2815 BKN025
     FM281500 35012G20KT P6SM BKN035
     FM290100 30006KT P6SM BKN050=



000
FTUS43 KGRR 281100
TAFBTL
TAF
KBTL 281140Z 2812/2912 34011KT P6SM BKN015
      TEMPO 2812/2814 SCT015
     FM281400 33012G20KT P6SM BKN035
     FM290100 30006KT P6SM BKN050=



000
FTUS43 KGRR 281100
TAFMKG
TAF
KMKG 281140Z 2812/2912 36010KT P6SM SCT050
     FM281300 36012KT P6SM BKN015
     FM281500 35012G21KT P6SM BKN035
     FM290100 33006KT P6SM BKN050=



000
FTUS43 KGRR 280800 AAA
TAFJXN
TAF AMD
KJXN 280900Z 2809/2906 33008KT P6SM OVC015
     FM281100 32010KT P6SM SCT015 BKN070
     FM281600 34012G20KT P6SM BKN035
     FM282300 33008KT P6SM FEW250=



000
FTUS43 KGRR 280800 AAA
TAFBTL
TAF AMD
KBTL 280858Z 2809/2906 33010KT P6SM BKN015
     FM281000 34011KT P6SM SCT015 BKN070
     FM281400 35012G20KT P6SM BKN035
     FM282300 33012KT P6SM SCT070=



000
FTUS43 KGRR 280800 AAA
TAFGRR
TAF AMD
KGRR 280852Z 2809/2906 33010KT P6SM SCT025
     FM281500 34012G20KT P6SM BKN035
     FM282300 31012KT P6SM SCT250=



000
FTUS43 KGRR 280800 AAA
TAFMKG
TAF AMD
KMKG 280846Z 2809/2906 35012KT P6SM SCT025
     FM281500 36012G20KT P6SM BKN040
     FM282300 31010KT P6SM FEW250=



000
FTUS43 KGRR 280500 RRA
TAFGRR
TAF
KGRR 280544Z 2806/2906 33008KT P6SM SCT015 BKN050
      TEMPO 2806/2810 BKN015
     FM281000 34010KT P6SM BKN050
     FM281500 34012G20KT P6SM BKN035
     FM282300 31012KT P6SM SCT250=



000
FTUS43 KGRR 280500 RRA
TAFMKG
TAF
KMKG 280544Z 2806/2906 35012KT P6SM SCT015 BKN050
      TEMPO 2806/2809 BKN015
     FM280900 35012KT P6SM BKN050
     FM281500 36012G20KT P6SM BKN040
     FM282300 31010KT P6SM FEW250=



000
FTUS43 KGRR 280500 RRA
TAFAZO
TAF
KAZO 280544Z 2806/2906 32011KT P6SM BKN009 BKN090
     FM280800 33012KT P6SM OVC015
     FM281400 35012G20KT P6SM BKN035
     FM282300 33012KT P6SM SCT070=



000
FTUS43 KGRR 280500 RRA
TAFLAN
TAF
KLAN 280544Z 2806/2906 32008KT P6SM SCT015 BKN080
      TEMPO 2806/2810 BKN015
     FM281000 33010KT P6SM BKN050
     FM281600 34012G20KT P6SM BKN035
     FM282300 32010KT P6SM BKN250=



000
FTUS43 KGRR 280500 RRA
TAFBTL
TAF
KBTL 280544Z 2806/2906 32010KT 5SM BR OVC004
     FM280800 33012KT P6SM OVC008
     FM281000 34012KT P6SM OVC015
     FM281400 35012G20KT P6SM BKN035
     FM282300 33012KT P6SM SCT070=



000
FTUS43 KGRR 280500 RRA
TAFJXN
TAF
KJXN 280544Z 2806/2906 33006KT P6SM BKN006 OVC090
     FM280800 33008KT P6SM OVC008
     FM281000 32010KT P6SM BKN015
     FM281600 34012G20KT P6SM BKN035
     FM282300 33008KT P6SM FEW250=



000
FTUS43 KGRR 280300 AAB
TAFLAN
TAF AMD
KLAN 280301Z 2803/2824 33007KT P6SM VCSH BKN005 BKN110
     FM280500 34009KT P6SM BKN015
     FM281600 34012G20KT P6SM BKN035=



000
FTUS43 KGRR 280300 AAD
TAFMKG
TAF AMD
KMKG 280300Z 2803/2824 34010KT P6SM FEW011 BKN028 BKN035
     FM280400 34012G24KT P6SM OVC015
     FM281000 35012G20KT P6SM BKN025
     FM281500 36010KT P6SM BKN050=



000
FTUS43 KGRR 280200 AAA
TAFJXN
TAF AMD
KJXN 280219Z 2802/2824 20005KT P6SM VCSH SCT090
     FM280500 34009KT P6SM BKN015
     FM281600 34012G20KT P6SM BKN035=



000
FTUS43 KGRR 280200 AAA
TAFGRR
TAF AMD
KGRR 280219Z 2802/2824 00000KT P6SM VCSH SCT025 BKN110 BKN230
     FM280600 34011KT P6SM BKN015
     FM281500 34012G20KT P6SM BKN035=



000
FTUS43 KGRR 280200 AAC
TAFMKG
TAF AMD
KMKG 280218Z 2802/2824 35009KT P6SM SCT010 BKN040 BKN210
     FM280600 34012G24KT P6SM OVC015
     FM281000 35012G20KT P6SM BKN025
     FM281500 36010KT P6SM BKN050=



000
FTUS43 KGRR 280100 AAB
TAFMKG
TAF AMD
KMKG 280108Z 2801/2824 32012KT P6SM BKN008 BKN100 BKN240
     FM280300 34012G24KT P6SM OVC015
     FM281000 35012G20KT P6SM BKN025
     FM281500 36010KT P6SM BKN050=



000
FTUS43 KGRR 280000 AAA
TAFLAN
TAF AMD
KLAN 280030Z 2801/2824 05006KT P6SM -TSRA SCT030 BKN060CB OVC090
     FM280100 30009KT P6SM VCSH BKN035
     FM280500 34009KT P6SM BKN015
     FM281600 34012G20KT P6SM BKN035=



000
FTUS43 KGRR 280000 AAA
TAFMKG
TAF AMD
KMKG 280030Z 2801/2824 31012G20KT P6SM VCSH FEW007 SCT045 BKN250
     FM280300 34012G24KT P6SM OVC015
     FM281000 35012G20KT P6SM BKN025
     FM281500 36010KT P6SM BKN050=



000
FTUS43 KGRR 272300
TAFLAN
TAF
KLAN 272340Z 2800/2824 10008KT 3SM -TSRA BR FEW016 BKN045CB OVC080
     FM280100 30009KT P6SM VCSH BKN035
     FM280500 34009KT P6SM BKN015
     FM281600 34012G20KT P6SM BKN035=



000
FTUS43 KGRR 272300
TAFGRR
TAF
KGRR 272340Z 2800/2824 30010KT P6SM VCSH FEW026 BKN060 BKN200
     FM280400 34011KT P6SM BKN015
     FM281500 34012G20KT P6SM BKN035=



000
FTUS43 KGRR 272300
TAFAZO
TAF
KAZO 272340Z 2800/2824 33008KT P6SM VCSH BKN090
     FM280500 34009KT P6SM BKN015
     FM281600 34012G20KT P6SM BKN035=



000
FTUS43 KGRR 272300
TAFBTL
TAF
KBTL 272340Z 2800/2824 30010KT P6SM VCSH FEW090
     FM280500 34009KT P6SM BKN015
     FM281600 34012G20KT P6SM BKN035=



000
FTUS43 KGRR 272300
TAFMKG
TAF
KMKG 272340Z 2800/2824 27008KT P6SM VCSH FEW045 SCT100 BKN200
     FM280300 34012G24KT P6SM OVC015
     FM281000 35012G20KT P6SM BKN025
     FM281500 36010KT P6SM BKN050=



000
FTUS43 KGRR 272300
TAFJXN
TAF
KJXN 272340Z 2800/2824 30008G16KT P6SM VCSH FEW050 SCT070 BKN120
     FM280500 34009KT P6SM BKN015
     FM281600 34012G20KT P6SM BKN035=



000
FTUS43 KGRR 272300 AAF
TAFLAN
TAF AMD
KLAN 272317Z 2723/2818 VRB06KT 3/4SM -TSRA BR BKN016CB BKN040
      OVC100
     FM280000 36008KT 5SM -TSRA BR OVC015CB
     FM280100 30009KT P6SM VCSH BKN035
     FM280500 34009KT P6SM BKN015
     FM281600 34012G20KT P6SM BKN035=



000
FTUS43 KGRR 272200 AAC
TAFJXN
TAF AMD
KJXN 272249Z 2723/2818 VRB06KT P6SM VCTS FEW024 SCT050CB
     FM280000 30009KT P6SM VCSH BKN035
     FM280500 34009KT P6SM BKN015
     FM281600 34012G20KT P6SM BKN035=



000
FTUS43 KGRR 272200 AAE
TAFLAN
TAF AMD
KLAN 272248Z 2723/2818 28013G18KT P6SM -TSRA BKN060CB
      TEMPO 2723/2724 31020G35KT 2SM +TSRA BR OVC025CB
     FM280000 30009KT P6SM VCSH BKN035
     FM280500 34009KT P6SM BKN015
     FM281600 34012G20KT P6SM BKN035=



000
FTUS43 KGRR 272200 AAF
TAFBTL
TAF AMD
KBTL 272242Z 2723/2818 29010KT P6SM FEW060 SCT070 SCT090
     FM280000 30009KT P6SM VCSH BKN035
     FM280500 34009KT P6SM BKN015
     FM281600 34012G20KT P6SM BKN035=



000
FTUS43 KGRR 272200 AAF
TAFAZO
TAF AMD
KAZO 272242Z 2723/2818 31010G18KT 4SM -RA FEW024 SCT045 BKN060
     FM280000 30009KT P6SM VCSH BKN035
     FM280500 34009KT P6SM BKN015
     FM281600 34012G20KT P6SM BKN035=



000
FTUS43 KGRR 272200 AAC
TAFGRR
TAF AMD
KGRR 272241Z 2723/2818 28018G24KT P6SM VCTS SCT035CB BKN140 BKN200
     FM280000 32014KT P6SM VCSH BKN035
     FM280400 34011KT P6SM BKN015
     FM281500 34012G20KT P6SM BKN035=



000
FTUS43 KGRR 272200 AAA
TAFMKG
TAF AMD
KMKG 272240Z 2723/2818 29010KT P6SM VCSH SCT045 BKN150 BKN240
     FM280300 34012G24KT P6SM OVC015
     FM281000 35012G20KT P6SM BKN025
     FM281500 36010KT P6SM BKN050=



000
FTUS43 KGRR 272100 AAD
TAFLAN
TAF AMD
KLAN 272155Z 2722/2818 09004KT P6SM VCTS SCT040 BKN050CB OVC090
      TEMPO 2722/2724 04010G20KT 5SM TSRA BR OVC025CB
     FM280000 30009KT P6SM VCSH BKN035
     FM280500 34009KT P6SM BKN015
     FM281600 34012G20KT P6SM BKN035=



000
FTUS43 KGRR 272100 AAE
TAFBTL
TAF AMD
KBTL 272154Z 2722/2818 26013KT 3SM -RA VCTS SCT050 BKN070CB OVC100
      TEMPO 2722/2724 2SM +TSRA BR OVC025CB
     FM280000 30009KT P6SM VCSH BKN035
     FM280500 34009KT P6SM BKN015
     FM281600 34012G20KT P6SM BKN035=



000
FTUS43 KGRR 272100 AAE
TAFAZO
TAF AMD
KAZO 272153Z 2722/2818 32006KT 4SM -RA VCTS FEW017 SCT070CB BKN080
      TEMPO 2722/2724 5SM +TSRA BR OVC025CB
     FM280000 30009KT P6SM VCSH BKN035
     FM280500 34009KT P6SM BKN015
     FM281600 34012G20KT P6SM BKN035=



000
FTUS43 KGRR 272100 AAD
TAFAZO
TAF AMD
KAZO 272119Z 2721/2818 31012G26KT P6SM TS FEW040 SCT050CB BKN070
     FM272200 25015G25KT P6SM VCTS SCT040CB BKN080
      TEMPO 2722/2724 5SM +TSRA BR OVC025CB
     FM280000 30009KT P6SM VCSH BKN035
     FM280500 34009KT P6SM BKN015
     FM281600 34012G20KT P6SM BKN035=



000
FTUS43 KGRR 272100 AAB
TAFGRR
TAF AMD
KGRR 272118Z 2721/2818 28018G24KT P6SM VCTS SCT035CB BKN140 BKN200
     FM272200 31015G25KT P6SM BKN035
      TEMPO 2722/2724 4SM TSRA BR OVC025CB
     FM280000 32014KT P6SM VCSH BKN035
     FM280400 34011KT P6SM BKN015
     FM281500 34012G20KT P6SM BKN035=



000
FTUS43 KGRR 272100 AAD
TAFBTL
TAF AMD
KBTL 272111Z 2721/2818 28026G41KT 1 1/2SM TSRA SCT015 BKN050CB
     FM272145 25015G25KT 5SM -TSRA BR SCT015 BKN050CB
     FM272200 27015G25KT P6SM VCTS SCT045CB BKN090
      TEMPO 2722/2724 2SM +TSRA BR OVC025CB
     FM280000 30009KT P6SM VCSH BKN035
     FM280500 34009KT P6SM BKN015
     FM281600 34012G20KT P6SM BKN035=



000
FTUS43 KGRR 272100 AAB
TAFJXN
TAF AMD
KJXN 272100Z 2721/2818 01004KT P6SM VCTS FEW040 SCT060CB
      TEMPO 2722/2724 26020G30KT 1SM +TSRA BR OVC015CB
     FM280000 30009KT P6SM VCSH BKN035
     FM280500 34009KT P6SM BKN015
     FM281600 34012G20KT P6SM BKN035=



000
FTUS43 KGRR 272000 AAC
TAFAZO
TAF AMD
KAZO 272053Z 2721/2818 24018G25KT P6SM VCTS SCT040CB
     FM272100 28025G35KT 2SM +TSRA BR OVC015CB
     FM272200 25015G25KT P6SM VCTS SCT040CB BKN080
      TEMPO 2722/2724 26020G30KT 1SM +TSRA BR OVC015CB
     FM280000 30009KT P6SM VCSH BKN035
     FM280500 34009KT P6SM BKN015
     FM281600 34012G20KT P6SM BKN035=



000
FTUS43 KGRR 272000 AAC
TAFBTL
TAF AMD
KBTL 272049Z 2721/2818 28015G21KT P6SM VCTS FEW045CB
     FM272115 28030G45KT 1SM +TSRA BR OVC015CB
     FM272200 27015G25KT P6SM VCTS SCT045CB BKN090
      TEMPO 2722/2724 2SM +TSRA BR OVC025CB
     FM280000 30009KT P6SM VCSH BKN035
     FM280500 34009KT P6SM BKN015
     FM281600 34012G20KT P6SM BKN035=



000
FTUS43 KGRR 272000 AAC
TAFLAN
TAF AMD
KLAN 272024Z 2720/2818 VRB03KT P6SM VCTS FEW060CB SCT090
      TEMPO 2721/2724 26020G45KT 1SM +TSRA BR OVC015CB
     FM280000 30009KT P6SM VCSH BKN035
     FM280500 34009KT P6SM BKN015
     FM281600 34012G20KT P6SM BKN035=



000
FTUS43 KGRR 272000 AAB
TAFBTL
TAF AMD
KBTL 272018Z 2720/2818 28015G21KT P6SM VCTS FEW045CB SCT080
      TEMPO 2722/2724 26020G30KT 1SM +TSRA BR OVC015CB
     FM280000 30009KT P6SM VCSH BKN035
     FM280500 34009KT P6SM BKN015
     FM281600 34012G20KT P6SM BKN035=



000
FTUS43 KGRR 272000 AAB
TAFAZO
TAF AMD
KAZO 272011Z 2720/2818 28018G25KT P6SM VCTS SCT035CB BKN045
      TEMPO 2722/2724 26020G30KT 1SM +TSRA BR OVC015CB
     FM280000 30009KT P6SM VCSH BKN035
     FM280500 34009KT P6SM BKN015
     FM281600 34012G20KT P6SM BKN035=



000
FTUS43 KGRR 272000 AAA
TAFGRR
TAF AMD
KGRR 272010Z 2720/2818 27020G26KT P6SM VCTS SCT035CB BKN120 BKN200
     FM272130 27020G35KT 2SM +TSRA BR OVC025CB
     FM272200 31015G25KT P6SM BKN035
      TEMPO 2722/2724 1SM +TSRA BR OVC025CB
     FM280000 32014KT P6SM VCSH BKN035
     FM280400 34011KT P6SM BKN015
     FM281500 34012G20KT P6SM BKN035=



000
FTUS43 KGRR 271900 AAB
TAFLAN
TAF AMD
KLAN 271926Z 2719/2818 27007KT P6SM VCTS BKN035CB
      TEMPO 2719/2722 26020G45KT 1SM +TSRA BR OVC015CB
     FM272300 30009KT P6SM VCSH BKN035
     FM280500 34009KT P6SM BKN015
     FM281600 34012G20KT P6SM BKN035=



000
FTUS43 KGRR 271800 AAA
TAFBTL
TAF AMD
KBTL 271858Z 2719/2818 24007KT P6SM VCTS BKN035CB
      TEMPO 2719/2722 26020G30KT 1SM +TSRA BR OVC015CB
     FM272300 30009KT P6SM VCSH BKN035
     FM280500 34009KT P6SM BKN015
     FM281600 34012G20KT P6SM BKN035=



000
FTUS43 KGRR 271800 AAA
TAFAZO
TAF AMD
KAZO 271857Z 2719/2818 28007KT P6SM VCTS BKN035CB
      TEMPO 2719/2722 26020G30KT 1SM +TSRA BR OVC015CB
     FM272300 30009KT P6SM VCSH BKN035
     FM280500 34009KT P6SM BKN015
     FM281600 34012G20KT P6SM BKN035=



000
FTUS43 KGRR 271800 AAA
TAFJXN
TAF AMD
KJXN 271851Z 2719/2818 26007KT P6SM VCTS BKN035CB
      TEMPO 2719/2722 26020G30KT 1SM +TSRA BR OVC015CB
     FM272300 30009KT P6SM VCSH BKN035
     FM280500 34009KT P6SM BKN015
     FM281600 34012G20KT P6SM BKN035=



000
FTUS43 KGRR 271800 AAA
TAFLAN
TAF AMD
KLAN 271850Z 2719/2818 27007KT P6SM VCTS BKN035CB
      TEMPO 2719/2722 26020G30KT 1SM +TSRA BR OVC015CB
     FM272300 30009KT P6SM VCSH BKN035
     FM280500 34009KT P6SM BKN015
     FM281600 34012G20KT P6SM BKN035=



000
FTUS43 KGRR 271700
TAFJXN
TAF
KJXN 271740Z 2718/2818 28007KT P6SM VCTS BKN035CB
     FM272300 31007KT P6SM VCSH BKN035
     FM280500 33007KT P6SM BKN015
     FM281600 33010G18KT P6SM BKN035=



000
FTUS43 KGRR 271700
TAFGRR
TAF
KGRR 271740Z 2718/2818 28011KT P6SM VCTS BKN025CB
     FM272200 31011KT P6SM VCSH BKN035
     FM280400 34011KT P6SM BKN015
     FM281500 34012G20KT P6SM BKN035=



000
FTUS43 KGRR 271700
TAFMKG
TAF
KMKG 271740Z 2718/2818 28010KT P6SM VCTS BKN035CB
     FM272100 32010KT P6SM VCSH BKN035
     FM280300 34010G18KT P6SM BKN015
     FM281500 33012G22KT P6SM BKN035=



000
FTUS43 KGRR 271700
TAFAZO
TAF
KAZO 271740Z 2718/2818 30012KT P6SM VCTS BKN035CB
     FM272200 31010KT P6SM VCSH BKN035
     FM280500 33010KT P6SM BKN015
     FM281500 34013G21KT P6SM BKN035=



000
FTUS43 KGRR 271700
TAFLAN
TAF
KLAN 271740Z 2718/2818 27007KT P6SM VCTS BKN025CB
     FM272300 30009KT P6SM VCSH BKN035
     FM280500 34009KT P6SM BKN015
     FM281600 34012G20KT P6SM BKN035=



000
FTUS43 KGRR 271700
TAFBTL
TAF
KBTL 271740Z 2718/2818 30012KT P6SM VCTS BKN035CB
     FM272200 31010KT P6SM VCSH BKN035
     FM280500 33010KT P6SM BKN015
     FM281500 34013G21KT P6SM BKN035=



000
FTUS43 KGRR 271600 AAB
TAFMKG
TAF AMD
KMKG 271613Z 2716/2812 28008KT P6SM BKN150
     FM271800 29008KT P6SM VCTS BKN025CB
     FM272300 33008KT P6SM BKN035
     FM280300 34010G18KT P6SM BKN020=



000
FTUS43 KGRR 271500 AAA
TAFJXN
TAF AMD
KJXN 271515Z 2715/2812 24007KT P6SM SCT015 BKN025
      TEMPO 2715/2717 -SHRA BKN015
     FM271700 24007KT 6SM HZ VCTS BKN025CB
     FM272300 31008KT P6SM BKN035
     FM280400 33009KT P6SM BKN020=



000
FTUS43 KGRR 271500 AAA
TAFLAN
TAF AMD
KLAN 271513Z 2715/2812 22008KT 4SM -SHRA BR SCT008 BKN015
     FM271700 25008KT 6SM HZ VCTS BKN025CB
     FM272300 31008KT P6SM BKN035
     FM280300 34009KT P6SM BKN020=



000
FTUS43 KGRR 271500 AAA
TAFBTL
TAF AMD
KBTL 271510Z 2715/2812 23007KT P6SM SCT015 BKN025
      TEMPO 2715/2717 BKN015
     FM271700 24007KT 6SM HZ VCTS BKN025CB
     FM272300 31008KT P6SM BKN035
     FM280400 33009KT P6SM BKN020=



000
FTUS43 KGRR 271500 AAA
TAFAZO
TAF AMD
KAZO 271509Z 2715/2812 24008KT P6SM BKN015
     FM271700 24008KT 6SM HZ VCTS BKN025CB
     FM272300 31008KT P6SM BKN035
     FM280400 33009KT P6SM BKN020=



000
FTUS43 KGRR 271500 AAA
TAFGRR
TAF AMD
KGRR 271507Z 2715/2812 24008KT 5SM BR OVC008
     FM271600 24008KT 6SM HZ BKN015
     FM271700 25008KT P6SM VCTS BKN025CB
     FM272300 31008KT P6SM BKN035
     FM280300 34009KT P6SM BKN020=



000
FTUS43 KGRR 271500 AAA
TAFMKG
TAF AMD
KMKG 271506Z 2715/2812 28008KT P6SM SCT008 BKN150
      TEMPO 2715/2717 BKN015
     FM271700 29008KT P6SM VCTS BKN025CB
     FM272300 33008KT P6SM BKN035
     FM280300 34010G18KT P6SM BKN020=



000
FTUS43 KGRR 271100 RRA
TAFAZO
TAF
KAZO 271142Z 2712/2812 26005KT 1/4SM FG OVC002
     FM271330 25006KT 1SM BR OVC006
     FM271500 24007KT 4SM BR VCSH BKN015
     FM271600 24007KT 6SM HZ VCTS BKN025CB
     FM272300 31008KT P6SM BKN035
     FM280400 33009KT P6SM BKN020=



000
FTUS43 KGRR 271100 RRA
TAFJXN
TAF
KJXN 271142Z 2712/2812 25005KT 1SM BR OVC010
     FM271330 25006KT 1SM BR OVC006
     FM271500 24007KT 4SM BR VCSH BKN015
     FM271600 24007KT 6SM HZ VCTS BKN025CB
     FM272300 31008KT P6SM BKN035
     FM280400 33009KT P6SM BKN020=



000
FTUS43 KGRR 271100 RRA
TAFGRR
TAF
KGRR 271142Z 2712/2812 22006KT 1/2SM FG VCSH OVC002
     FM271330 23006KT 1 1/2SM BR VCSH OVC006
     FM271500 24007KT 4SM BR VCSH BKN015
     FM271600 25007KT 6SM HZ VCTS BKN025CB
     FM272300 31008KT P6SM BKN035
     FM280300 34009KT P6SM BKN020=



000
FTUS43 KGRR 271100 RRA
TAFLAN
TAF
KLAN 271142Z 2712/2812 22006KT 1/2SM FG VCSH OVC002
     FM271330 23006KT 1 1/2SM BR VCSH OVC006
     FM271500 24007KT 4SM BR VCSH BKN015
     FM271600 25007KT 6SM HZ VCTS BKN025CB
     FM272300 31008KT P6SM BKN035
     FM280300 34009KT P6SM BKN020=



000
FTUS43 KGRR 271100 RRA
TAFBTL
TAF
KBTL 271142Z 2712/2812 25005KT 1/4SM FG VV001
     FM271330 25006KT 1SM BR OVC006
     FM271500 24007KT 4SM BR VCSH BKN015
     FM271600 24007KT 6SM HZ VCTS BKN025CB
     FM272300 31008KT P6SM BKN035
     FM280400 33009KT P6SM BKN020=



000
FTUS43 KGRR 271100 RRA
TAFMKG
TAF
KMKG 271142Z 2712/2812 20006KT 1/4SM FG VCSH OVC002
     FM271330 21006KT 1 1/2SM BR VCSH OVC006
     FM271500 25007KT 4SM BR VCSH BKN015
     FM271600 26007KT 6SM HZ VCTS BKN025CB
     FM272300 33008KT P6SM BKN035
     FM280300 34010G18KT P6SM BKN020=



000
FTUS43 KGRR 271000 AAC
TAFGRR
TAF AMD
KGRR 271031Z 2711/2806 24005KT 1/4SM FG VV002
     FM271300 23006KT 1 1/2SM BR OVC006
     FM271600 22004KT 4SM -SHRA BR VCTS BKN025CB OVC060
     FM272300 28012KT P6SM BKN050
     FM280300 33012KT 6SM HZ OVC025=



000
FTUS43 KGRR 270900 AAB
TAFAZO
TAF AMD
KAZO 270941Z 2710/2806 00000KT 1/4SM FG VV002
     FM271300 23005KT 1SM BR OVC005
     FM271500 24008KT 5SM BR OVC040
     FM271800 25004KT 5SM -SHRA BR VCTS BKN025CB OVC050
     FM272300 28012KT P6SM BKN050=



000
FTUS43 KGRR 270900 AAB
TAFGRR
TAF AMD
KGRR 270940Z 2710/2806 20003KT 1 1/2SM BR FEW005
     FM271100 20003KT 1/2SM FG OVC005
     FM271300 23006KT 2SM BR OVC008
     FM271600 22004KT 4SM -SHRA BR VCTS BKN025CB OVC060
     FM272300 28012KT P6SM BKN050
     FM280300 33012KT 6SM HZ OVC025=



000
FTUS43 KGRR 270800 AAA
TAFBTL
TAF AMD
KBTL 270819Z 2708/2806 23004KT 1/4SM FG VV001
     FM271200 00000KT 1 1/2SM BR OVC004
     FM271500 24008KT 5SM BR OVC040
     FM271800 25004KT 5SM -SHRA BR VCTS BKN025CB OVC050
     FM272300 28012KT P6SM BKN050=



000
FTUS43 KGRR 270800 AAA
TAFGRR
TAF AMD
KGRR 270818Z 2708/2806 24007KT 4SM BR FEW035
     FM271100 VRB03KT 2SM BR SCT006
     FM271600 22004KT 4SM -SHRA BR VCTS BKN025CB OVC060
     FM272300 28012KT P6SM BKN050
     FM280300 33012KT 6SM HZ OVC025=



000
FTUS43 KGRR 270800 AAA
TAFMKG
TAF AMD
KMKG 270813Z 2708/2806 22006KT 1/4SM FG VV004
     FM271300 19004KT 2SM BR OVC080
     FM271400 25008KT 5SM -SHRA BR VCTS BKN025CB OVC050
     FM272000 30012KT P6SM VCTS BKN050CB
     FM280300 33013KT P6SM OVC025=



000
FTUS43 KGRR 270700 AAA
TAFAZO
TAF AMD
KAZO 270728Z 2707/2806 00000KT 1SM BR SCT002
     FM271000 00000KT 3/4SM BR VV002
     FM271300 00000KT 1 1/2SM BR OVC004
     FM271500 24008KT 5SM BR OVC040
     FM271800 25004KT 5SM -SHRA BR VCTS BKN025CB OVC050
     FM272300 28012KT P6SM BKN050=



000
FTUS43 KGRR 270500
TAFLAN
TAF
KLAN 270538Z 2706/2806 24007KT 5SM BR BKN250
     FM270900 VRB03KT 2SM BR BKN007
     FM271500 24005KT 4SM BR SCT015 OVC060
     FM271800 22013KT 4SM -SHRA BR VCTS BKN024CB OVC035
     FM280100 34012KT P6SM VCTS SCT035 BKN050CB=



000
FTUS43 KGRR 270500
TAFBTL
TAF
KBTL 270538Z 2706/2806 27004KT 3SM BR SKC
     FM270900 00000KT 2SM BR OVC100
     FM271200 00000KT 1 1/2SM BR OVC004
     FM271500 24008KT 5SM BR OVC040
     FM271800 25004KT 5SM -SHRA BR VCTS BKN025CB OVC050
     FM272300 28012KT P6SM BKN050=



000
FTUS43 KGRR 270500
TAFGRR
TAF
KGRR 270538Z 2706/2806 24007KT 6SM HZ FEW035
     FM270900 VRB03KT 2SM BR OVC004
     FM271600 22004KT 4SM -SHRA BR VCTS BKN025CB OVC060
     FM272300 28012KT P6SM BKN050
     FM280300 33012KT 6SM HZ OVC025=



000
FTUS43 KGRR 270500
TAFJXN
TAF
KJXN 270538Z 2706/2806 25003KT 2SM BR SKC
     FM270900 00000KT 1SM BR OVC008
     FM271100 00000KT 3/4SM BR OVC002
     FM271500 24008KT 5SM BR OVC040
     FM271800 25004KT 5SM -SHRA BR VCTS BKN025CB OVC050
     FM280100 34012KT P6SM VCTS SCT035 BKN050CB=



000
FTUS43 KGRR 270500
TAFAZO
TAF
KAZO 270538Z 2706/2806 00000KT 1/4SM FG VV010
     FM270900 00000KT 1/4SM FG VV002
     FM271300 00000KT 1 1/2SM BR OVC004
     FM271500 24008KT 5SM BR OVC040
     FM271800 25004KT 5SM -SHRA BR VCTS BKN025CB OVC050
     FM272300 28012KT P6SM BKN050=



000
FTUS43 KGRR 270500
TAFMKG
TAF
KMKG 270538Z 2706/2806 22006KT 3SM BR BKN250
     FM271000 22005KT 1 1/2SM BR OVC007
     FM271200 19004KT 2SM BR OVC080
     FM271400 25008KT 5SM -SHRA BR VCTS BKN025CB OVC050
     FM272000 30012KT P6SM VCTS BKN050CB
     FM280300 33013KT P6SM OVC025=



    US Dept of Commerce
    National Oceanic and Atmospheric Administration
    National Weather Service
    1325 East West Highway
    Silver Spring, MD 20910
    Page Author: NWS Internet Services Team
Disclaimer
Information Quality
Credits
Glossary
Privacy Policy
Freedom of Information Act (FOIA)
About Us
Career Opportunities